Time;durP1;ratioP1;P1;durP2;ratioP2;P2;SDS_P1;SDS_P2;PMS_P1;PMS_P2;Temp;Humidity;BMP_temperature;BMP_pressure;BME280_temperature;BME280_humidity;BME280_pressure;Samples;Min_cycle;Max_cycle;Signal;HPM_P1;HPM_P2
2022/03/30 00:01:37;;;;;;;36.75;23.10;;;10.40;99.90;;;;;;5082681;28;20020;-71
2022/03/30 00:04:03;;;;;;;35.97;22.48;;;10.50;99.90;;;;;;5082798;28;20020;-70
2022/03/30 00:06:29;;;;;;;37.33;24.35;;;10.40;99.90;;;;;;5065883;28;20029;-70
2022/03/30 00:08:55;;;;;;;40.97;24.33;;;10.50;99.90;;;;;;5082767;28;20143;-70
2022/03/30 00:11:22;;;;;;;38.45;22.40;;;10.50;99.90;;;;;;5065592;28;20397;-71
2022/03/30 00:13:48;;;;;;;40.15;23.42;;;10.40;99.90;;;;;;5080034;28;20067;-72
2022/03/30 00:16:14;;;;;;;39.05;21.83;;;10.40;99.90;;;;;;5078601;28;20377;-71
2022/03/30 00:18:39;;;;;;;38.38;22.90;;;10.30;99.90;;;;;;5078984;28;20123;-70
2022/03/30 00:21:06;;;;;;;41.92;23.23;;;10.30;99.90;;;;;;5079871;28;20040;-71
2022/03/30 00:23:32;;;;;;;40.05;22.80;;;10.20;99.90;;;;;;5079189;28;20261;-71
2022/03/30 00:25:58;;;;;;;36.17;22.17;;;10.20;99.90;;;;;;5079547;28;20028;-70
2022/03/30 00:28:27;;;;;;;37.67;21.75;;;10.20;99.90;;;;;;5078817;28;20055;-70
2022/03/30 00:30:53;;;;;;;39.10;22.05;;;10.10;99.90;;;;;;5046819;28;20080;-71
2022/03/30 00:33:19;;;;;;;37.78;22.38;;;10.10;99.90;;;;;;5062119;28;20047;-69
2022/03/30 00:35:46;;;;;;;37.15;22.88;;;10.10;99.90;;;;;;5079123;28;20032;-70
2022/03/30 00:38:13;;;;;;;40.63;22.25;;;10.10;99.90;;;;;;5079163;28;20311;-71
2022/03/30 00:40:38;;;;;;;40.40;20.92;;;10.10;99.90;;;;;;5078954;28;20060;-70
2022/03/30 00:43:04;;;;;;;39.90;22.60;;;10.10;99.90;;;;;;5078425;28;20300;-70
2022/03/30 00:45:30;;;;;;;34.55;20.95;;;9.90;99.90;;;;;;5062174;28;20388;-70
2022/03/30 00:47:56;;;;;;;38.90;21.05;;;9.90;99.90;;;;;;5061903;28;20037;-71
2022/03/30 00:50:23;;;;;;;37.22;21.42;;;9.90;99.90;;;;;;5078774;28;20033;-71
2022/03/30 00:52:53;;;;;;;32.95;20.83;;;9.80;99.90;;;;;;5079167;28;20048;-71
2022/03/30 00:55:19;;;;;;;38.20;20.55;;;9.80;99.90;;;;;;5078480;28;20086;-71
2022/03/30 00:57:47;;;;;;;42.38;20.83;;;9.80;99.90;;;;;;5078944;28;20036;-71
2022/03/30 01:00:15;;;;;;;38.53;21.73;;;9.80;99.90;;;;;;5079216;28;20097;-70
2022/03/30 01:02:43;;;;;;;34.33;20.52;;;9.70;99.90;;;;;;5061746;28;20048;-70
2022/03/30 01:05:09;;;;;;;32.53;20.88;;;9.80;99.90;;;;;;5078516;28;20304;-72
2022/03/30 01:07:35;;;;;;;36.67;20.48;;;9.80;99.90;;;;;;5061579;28;20413;-71
2022/03/30 01:10:03;;;;;;;33.05;19.77;;;9.70;99.90;;;;;;5079238;28;20052;-70
2022/03/30 01:12:31;;;;;;;43.92;20.75;;;9.70;99.90;;;;;;5077924;28;20029;-70
2022/03/30 01:15:00;;;;;;;32.65;20.80;;;9.70;99.90;;;;;;5078000;28;20367;-70
2022/03/30 01:17:26;;;;;;;35.08;20.65;;;9.70;99.90;;;;;;5078464;28;20040;-71
2022/03/30 01:19:52;;;;;;;40.65;21.33;;;9.70;99.90;;;;;;5078808;28;20418;-71
2022/03/30 01:22:18;;;;;;;35.47;19.77;;;9.60;99.90;;;;;;5078415;28;20047;-71
2022/03/30 01:24:44;;;;;;;39.00;21.27;;;9.60;99.90;;;;;;5077578;28;20035;-71
2022/03/30 01:27:11;;;;;;;33.35;19.85;;;9.50;99.90;;;;;;5077618;28;20266;-72
2022/03/30 01:32:26;;;;;;;36.97;20.42;;;9.50;99.90;;;;;;5057220;28;20289;-71
2022/03/30 01:35:00;;;;;;;34.38;20.58;;;9.60;99.90;;;;;;5078231;28;20033;-70
2022/03/30 01:37:28;;;;;;;32.75;19.85;;;9.60;99.90;;;;;;5060779;28;20075;-71
2022/03/30 01:39:59;;;;;;;30.30;19.38;;;9.70;99.90;;;;;;5077363;28;20052;-71
2022/03/30 01:42:26;;;;;;;36.30;19.95;;;9.70;99.90;;;;;;5077518;28;20036;-72
2022/03/30 01:44:52;;;;;;;35.15;19.73;;;9.60;99.90;;;;;;5077501;28;20116;-72
2022/03/30 01:47:19;;;;;;;32.45;19.52;;;9.50;99.90;;;;;;5078248;28;20036;-71
2022/03/30 01:49:45;;;;;;;36.22;19.85;;;9.50;99.90;;;;;;5077833;28;20070;-72
2022/03/30 01:52:12;;;;;;;34.42;19.83;;;9.40;99.90;;;;;;5061012;28;20032;-72
2022/03/30 01:54:40;;;;;;;35.63;19.85;;;9.30;99.90;;;;;;5060774;28;20048;-71
2022/03/30 01:57:06;;;;;;;37.70;20.40;;;9.30;99.90;;;;;;5077921;28;20043;-72
2022/03/30 01:59:33;;;;;;;35.70;19.45;;;9.30;99.90;;;;;;5077662;28;20043;-72
2022/03/30 02:02:01;;;;;;;32.28;19.98;;;9.30;99.90;;;;;;5060272;28;20028;-70
2022/03/30 02:04:26;;;;;;;37.15;20.35;;;9.30;99.90;;;;;;5076794;28;20048;-70
2022/03/30 02:06:52;;;;;;;32.88;19.05;;;9.40;99.90;;;;;;5076717;28;20304;-71
2022/03/30 02:09:18;;;;;;;34.22;19.38;;;9.40;99.90;;;;;;5077601;28;20028;-71
2022/03/30 02:11:44;;;;;;;33.90;19.25;;;9.40;99.90;;;;;;5077643;28;20028;-70
2022/03/30 02:14:10;;;;;;;35.47;18.48;;;9.50;99.90;;;;;;5076878;28;20036;-72
2022/03/30 02:16:36;;;;;;;35.72;19.08;;;9.40;99.90;;;;;;5077464;28;20064;-71
2022/03/30 02:19:02;;;;;;;33.65;18.75;;;9.50;99.90;;;;;;5076424;28;20149;-71
2022/03/30 02:21:28;;;;;;;38.78;18.58;;;9.50;99.90;;;;;;5076588;28;20041;-70
2022/03/30 02:23:54;;;;;;;34.03;18.25;;;9.50;99.90;;;;;;5077195;28;20063;-70
2022/03/30 02:26:20;;;;;;;32.65;18.50;;;9.40;99.90;;;;;;5077170;28;20033;-71
2022/03/30 02:28:51;;;;;;;28.75;17.75;;;9.40;99.90;;;;;;5077249;28;20037;-71
2022/03/30 02:31:21;;;;;;;30.90;17.65;;;9.50;99.90;;;;;;5076530;28;20033;-70
2022/03/30 02:33:47;;;;;;;37.22;18.52;;;9.60;99.90;;;;;;5076366;28;20063;-71
2022/03/30 02:36:13;;;;;;;30.58;18.23;;;9.60;99.90;;;;;;5076434;28;20392;-71
2022/03/30 02:38:40;;;;;;;29.17;18.15;;;9.60;99.90;;;;;;5076568;28;20033;-70
2022/03/30 02:41:07;;;;;;;31.25;17.33;;;9.60;99.90;;;;;;5076127;28;20416;-70
2022/03/30 02:43:33;;;;;;;38.05;18.52;;;9.70;99.90;;;;;;5076437;28;20284;-70
2022/03/30 02:46:02;;;;;;;38.05;18.35;;;9.70;99.90;;;;;;5076273;28;20031;-70
2022/03/30 02:48:28;;;;;;;36.95;19.15;;;9.80;99.90;;;;;;5077156;28;20025;-72
2022/03/30 02:50:57;;;;;;;34.33;17.48;;;9.70;99.90;;;;;;5076971;28;20039;-71
2022/03/30 02:53:24;;;;;;;34.92;18.45;;;9.70;99.90;;;;;;5076338;28;20361;-71
2022/03/30 02:55:50;;;;;;;35.28;18.23;;;9.70;99.90;;;;;;5076248;28;20024;-71
2022/03/30 02:58:16;;;;;;;31.35;17.92;;;9.70;99.90;;;;;;5076206;28;20124;-70
2022/03/30 03:00:43;;;;;;;36.15;17.52;;;9.70;99.90;;;;;;5076895;28;20105;-70
2022/03/30 03:03:09;;;;;;;33.88;17.88;;;9.50;99.90;;;;;;5059871;28;20109;-70
2022/03/30 03:05:37;;;;;;;31.67;16.85;;;9.50;99.90;;;;;;5076264;28;20036;-71
2022/03/30 03:08:05;;;;;;;37.40;17.80;;;9.50;99.90;;;;;;5077021;28;20021;-71
2022/03/30 03:10:34;;;;;;;36.67;17.98;;;9.60;99.90;;;;;;5059821;28;20407;-71
2022/03/30 03:13:03;;;;;;;30.92;17.38;;;9.70;99.90;;;;;;5077154;28;20031;-71
2022/03/30 03:15:29;;;;;;;28.88;16.88;;;9.70;99.90;;;;;;5077008;28;20025;-71
2022/03/30 03:17:55;;;;;;;31.83;17.40;;;9.60;99.90;;;;;;5060587;28;20045;-70
2022/03/30 03:20:22;;;;;;;29.70;16.70;;;9.60;99.90;;;;;;5076819;28;20039;-71
2022/03/30 03:22:47;;;;;;;29.08;16.17;;;9.50;99.90;;;;;;5076891;28;20028;-71
2022/03/30 03:25:14;;;;;;;33.25;17.25;;;9.60;99.90;;;;;;5077008;28;20108;-70
2022/03/30 03:27:40;;;;;;;34.75;17.13;;;9.60;99.90;;;;;;5076038;28;20074;-71
2022/03/30 03:30:07;;;;;;;34.28;16.70;;;9.60;99.90;;;;;;5060448;28;20032;-71
2022/03/30 03:32:33;;;;;;;29.45;16.15;;;9.50;99.90;;;;;;5077980;28;20036;-72
2022/03/30 03:34:59;;;;;;;28.00;16.40;;;9.60;99.90;;;;;;5076721;28;20387;-72
2022/03/30 03:37:25;;;;;;;33.70;16.83;;;9.50;99.90;;;;;;5076529;28;20118;-70
2022/03/30 03:39:51;;;;;;;36.55;16.77;;;9.30;99.90;;;;;;5077040;28;20041;-70
2022/03/30 03:42:17;;;;;;;33.80;16.65;;;9.40;99.90;;;;;;5077105;28;20035;-70
2022/03/30 03:44:44;;;;;;;31.35;16.95;;;9.20;99.90;;;;;;5076488;28;20403;-70
2022/03/30 03:47:10;;;;;;;30.70;16.70;;;9.00;99.90;;;;;;5076926;28;20051;-71
2022/03/30 03:49:36;;;;;;;31.80;16.08;;;9.10;99.90;;;;;;5079953;28;20024;-71
2022/03/30 03:52:04;;;;;;;33.15;16.92;;;9.00;99.90;;;;;;5079871;28;20046;-70
2022/03/30 03:54:30;;;;;;;28.10;16.05;;;8.90;99.90;;;;;;5063633;28;20036;-70
2022/03/30 03:56:56;;;;;;;32.17;16.55;;;8.90;99.90;;;;;;5080516;28;20058;-70
2022/03/30 03:59:24;;;;;;;30.55;16.27;;;8.90;99.90;;;;;;5080103;28;20103;-71
2022/03/30 04:01:50;;;;;;;33.67;16.88;;;9.00;99.90;;;;;;5080414;28;20028;-71
2022/03/30 04:04:17;;;;;;;27.40;16.45;;;9.00;99.90;;;;;;5080100;28;20036;-71
2022/03/30 04:06:43;;;;;;;27.48;15.38;;;9.00;99.90;;;;;;5079820;28;20281;-73
2022/03/30 04:09:09;;;;;;;29.02;16.17;;;9.10;99.90;;;;;;5046058;28;20047;-74
2022/03/30 04:11:35;;;;;;;35.05;17.58;;;9.00;99.90;;;;;;5079709;28;20024;-74
2022/03/30 04:14:01;;;;;;;32.88;17.00;;;9.20;99.90;;;;;;5079672;28;20039;-73
2022/03/30 04:16:26;;;;;;;31.90;17.50;;;9.20;99.90;;;;;;5079470;28;20037;-73
2022/03/30 04:18:52;;;;;;;33.03;17.10;;;9.20;99.90;;;;;;5062228;28;20037;-74
2022/03/30 04:21:18;;;;;;;34.42;16.98;;;9.10;99.90;;;;;;5062184;28;20058;-73
2022/03/30 04:23:44;;;;;;;33.85;17.13;;;9.00;99.90;;;;;;5079420;28;20067;-73
2022/03/30 04:26:11;;;;;;;28.52;16.35;;;9.00;99.90;;;;;;5078742;28;20036;-73
2022/03/30 04:28:43;;;;;;;34.33;16.70;;;8.90;99.90;;;;;;5078802;28;20032;-74
2022/03/30 04:31:12;;;;;;;32.63;16.15;;;9.00;99.90;;;;;;5079320;28;20047;-73
2022/03/30 04:33:39;;;;;;;31.60;17.05;;;9.00;99.90;;;;;;5078570;28;20036;-73
2022/03/30 04:36:05;;;;;;;31.73;17.08;;;8.90;99.90;;;;;;5078233;28;20037;-74
2022/03/30 04:38:32;;;;;;;35.95;16.73;;;8.80;99.90;;;;;;5079102;28;20025;-74
2022/03/30 04:40:59;;;;;;;36.97;17.55;;;8.90;99.90;;;;;;5079011;28;20040;-73
2022/03/30 04:43:25;;;;;;;33.70;16.98;;;8.90;99.90;;;;;;5078340;28;20039;-72
2022/03/30 04:45:51;;;;;;;31.90;15.95;;;8.90;99.90;;;;;;5078340;28;20036;-73
2022/03/30 04:48:17;;;;;;;29.08;16.98;;;8.90;99.90;;;;;;5061518;28;20119;-74
2022/03/30 04:50:42;;;;;;;32.42;17.27;;;8.90;99.90;;;;;;5078275;28;20059;-74
2022/03/30 04:53:08;;;;;;;31.30;17.42;;;8.90;99.90;;;;;;5079411;28;20110;-73
2022/03/30 04:55:36;;;;;;;32.88;16.35;;;8.90;99.90;;;;;;5079438;28;20334;-72
2022/03/30 04:58:03;;;;;;;33.60;16.92;;;8.90;99.90;;;;;;5077898;28;20044;-73
2022/03/30 05:00:29;;;;;;;31.02;16.55;;;8.90;99.90;;;;;;5077405;28;20060;-73
2022/03/30 05:02:55;;;;;;;36.70;17.55;;;8.80;99.90;;;;;;5061488;28;20350;-73
2022/03/30 05:05:20;;;;;;;34.15;17.42;;;8.80;99.90;;;;;;5078192;28;20469;-73
2022/03/30 05:07:46;;;;;;;34.08;17.45;;;8.80;99.90;;;;;;5077918;28;20419;-73
2022/03/30 05:10:14;;;;;;;32.70;16.77;;;8.80;99.90;;;;;;5077899;28;20408;-73
2022/03/30 05:12:40;;;;;;;30.70;16.50;;;8.70;99.90;;;;;;5079633;28;20261;-74
2022/03/30 05:15:07;;;;;;;37.58;17.63;;;8.70;99.90;;;;;;5062636;28;20036;-73
2022/03/30 05:17:33;;;;;;;32.22;16.42;;;8.70;99.90;;;;;;5077742;28;20103;-73
2022/03/30 05:19:59;;;;;;;33.25;17.73;;;8.70;99.90;;;;;;5078429;28;20386;-75
2022/03/30 05:22:25;;;;;;;38.38;18.20;;;8.70;99.90;;;;;;5078441;28;20032;-74
2022/03/30 05:24:51;;;;;;;33.75;17.30;;;8.70;99.90;;;;;;5078528;28;20047;-73
2022/03/30 05:27:20;;;;;;;34.35;17.83;;;8.60;99.90;;;;;;5078121;28;20029;-73
2022/03/30 05:29:45;;;;;;;32.60;17.15;;;8.70;99.90;;;;;;5077392;28;20040;-73
2022/03/30 05:32:11;;;;;;;33.83;17.35;;;8.60;99.90;;;;;;5077453;28;20032;-71
2022/03/30 05:34:37;;;;;;;34.67;17.63;;;8.60;99.90;;;;;;5078005;28;20039;-74
2022/03/30 05:37:03;;;;;;;35.67;17.58;;;8.60;99.90;;;;;;5077099;28;20084;-74
2022/03/30 05:39:32;;;;;;;31.23;16.77;;;8.60;99.90;;;;;;5077813;28;20041;-73
2022/03/30 05:41:58;;;;;;;40.40;18.70;;;8.70;99.90;;;;;;5077492;28;20036;-73
2022/03/30 05:44:24;;;;;;;33.30;16.60;;;8.60;99.90;;;;;;5077014;28;20041;-72
2022/03/30 05:46:53;;;;;;;31.98;17.60;;;8.60;99.90;;;;;;5077905;28;20028;-73
2022/03/30 05:49:19;;;;;;;33.33;17.73;;;8.50;99.90;;;;;;5060661;28;20093;-73
2022/03/30 05:51:45;;;;;;;30.13;17.23;;;8.50;99.90;;;;;;5077720;28;20037;-72
2022/03/30 05:54:11;;;;;;;29.63;17.20;;;8.60;99.90;;;;;;5078058;28;20060;-73
2022/03/30 05:59:21;;;;;;;40.25;18.10;;;8.60;99.90;;;;;;5077746;28;20033;-74
2022/03/30 06:01:47;;;;;;;33.15;17.55;;;8.70;99.90;;;;;;5078596;28;20032;-74
2022/03/30 06:04:13;;;;;;;30.00;15.40;;;8.80;99.90;;;;;;5044169;28;20120;-69
2022/03/30 06:06:39;;;;;;;34.33;17.83;;;9.00;99.90;;;;;;5078856;28;20408;-72
2022/03/30 06:09:07;;;;;;;34.10;17.27;;;9.00;99.90;;;;;;5078651;28;20028;-69
2022/03/30 06:11:33;;;;;;;33.35;17.40;;;9.00;99.90;;;;;;5077904;28;20066;-73
2022/03/30 06:13:59;;;;;;;33.20;16.63;;;9.00;99.90;;;;;;5078521;28;20048;-70
2022/03/30 06:16:26;;;;;;;33.38;17.80;;;9.00;99.90;;;;;;5079074;28;20350;-71
2022/03/30 06:18:52;;;;;;;31.33;17.08;;;8.80;99.90;;;;;;5077514;28;20129;-72
2022/03/30 06:21:18;;;;;;;32.97;17.25;;;8.70;99.90;;;;;;5078105;28;20415;-72
2022/03/30 06:23:44;;;;;;;32.30;16.63;;;8.70;99.90;;;;;;5079361;28;20351;-72
2022/03/30 06:26:10;;;;;;;30.50;16.35;;;8.70;99.90;;;;;;5079391;28;20036;-70
2022/03/30 06:28:36;;;;;;;38.80;17.30;;;8.60;99.90;;;;;;5078885;28;20097;-74
2022/03/30 06:31:02;;;;;;;32.35;16.65;;;8.50;99.90;;;;;;5043886;28;20028;-73
2022/03/30 06:33:29;;;;;;;31.98;16.77;;;9.00;99.90;;;;;;5061899;28;20028;-75
2022/03/30 06:35:55;;;;;;;34.33;16.92;;;8.80;99.90;;;;;;5080073;28;20048;-72
2022/03/30 06:38:20;;;;;;;35.15;18.13;;;8.80;99.90;;;;;;5079730;28;20060;-73
2022/03/30 06:40:47;;;;;;;31.65;16.40;;;8.90;99.90;;;;;;5078615;28;20139;-75
2022/03/30 06:43:16;;;;;;;33.45;16.90;;;8.80;99.90;;;;;;5061443;28;20127;-72
2022/03/30 06:45:44;;;;;;;34.90;17.50;;;8.70;99.90;;;;;;5078532;28;20040;-75
2022/03/30 06:48:11;;;;;;;28.10;16.63;;;8.70;99.90;;;;;;5079214;28;20040;-72
2022/03/30 06:50:38;;;;;;;38.40;16.95;;;8.80;99.90;;;;;;5079153;28;20062;-72
2022/03/30 06:53:05;;;;;;;36.35;16.48;;;9.00;99.90;;;;;;5062722;28;20078;-70
2022/03/30 06:55:31;;;;;;;30.20;16.65;;;9.10;99.90;;;;;;5079363;28;20342;-73
2022/03/30 06:57:57;;;;;;;32.85;17.70;;;9.10;99.90;;;;;;5079446;28;20036;-71
2022/03/30 07:00:23;;;;;;;39.05;18.83;;;9.20;99.90;;;;;;5079701;28;20043;-72
2022/03/30 07:02:49;;;;;;;33.25;17.67;;;9.30;99.90;;;;;;5078910;28;20103;-74
2022/03/30 07:05:14;;;;;;;37.35;18.48;;;9.30;99.90;;;;;;5079960;28;20071;-74
2022/03/30 07:10:27;;;;;;;31.70;16.25;;;9.30;99.90;;;;;;5077842;28;20051;-71
2022/03/30 07:12:53;;;;;;;34.70;17.15;;;9.30;99.90;;;;;;5079176;28;20407;-74
2022/03/30 07:15:20;;;;;;;33.33;16.90;;;9.30;99.90;;;;;;5044447;28;20392;-70
2022/03/30 07:17:54;;;;;;;31.13;16.58;;;9.20;99.90;;;;;;5079124;28;20047;-72
2022/03/30 07:20:22;;;;;;;34.47;16.85;;;9.30;99.90;;;;;;5061771;28;20028;-73
2022/03/30 07:22:49;;;;;;;33.42;16.50;;;9.10;99.90;;;;;;5078415;28;20024;-72
2022/03/30 07:25:17;;;;;;;32.67;16.92;;;9.10;99.90;;;;;;5082763;28;20037;-72
2022/03/30 07:27:49;;;;;;;32.95;16.73;;;9.20;99.90;;;;;;5082772;28;20059;-75
2022/03/30 07:30:16;;;;;;;34.80;17.17;;;9.40;99.90;;;;;;5082464;28;20047;-74
2022/03/30 07:32:44;;;;;;;31.02;17.02;;;9.40;99.90;;;;;;5082402;28;20163;-74
2022/03/30 07:35:12;;;;;;;34.13;16.48;;;9.60;99.90;;;;;;5081394;28;20028;-75
2022/03/30 07:37:39;;;;;;;30.20;16.52;;;9.60;99.90;;;;;;5081567;28;20039;-72
2022/03/30 07:40:06;;;;;;;35.65;16.38;;;9.80;99.90;;;;;;5080951;28;20376;-72
2022/03/30 07:42:32;;;;;;;32.38;16.42;;;10.00;99.90;;;;;;5081118;28;20035;-73
2022/03/30 07:44:58;;;;;;;28.88;15.43;;;10.10;99.90;;;;;;5063728;28;20025;-70
2022/03/30 07:47:25;;;;;;;27.50;15.30;;;9.80;99.90;;;;;;5081073;28;20040;-73
2022/03/30 07:49:52;;;;;;;33.92;15.50;;;9.50;99.90;;;;;;5065282;28;20036;-74
2022/03/30 07:52:20;;;;;;;28.90;16.00;;;9.60;99.90;;;;;;5081386;28;20289;-73
2022/03/30 07:54:50;;;;;;;27.40;15.60;;;9.60;99.90;;;;;;5083405;28;20403;-72
2022/03/30 07:57:25;;;;;;;27.58;14.50;;;9.40;99.90;;;;;;5082133;28;20029;-73
2022/03/30 07:59:55;;;;;;;30.85;15.45;;;9.30;99.90;;;;;;5068058;28;20358;-73
2022/03/30 08:02:25;;;;;;;28.30;14.95;;;9.30;99.90;;;;;;5049422;28;20032;-75
2022/03/30 08:04:51;;;;;;;28.42;15.20;;;9.30;99.90;;;;;;5080961;28;20028;-76
2022/03/30 08:07:18;;;;;;;25.90;15.05;;;9.50;99.90;;;;;;5066113;28;20109;-75
2022/03/30 08:09:45;;;;;;;27.83;14.57;;;9.60;99.90;;;;;;5082175;28;20040;-72
2022/03/30 08:12:12;;;;;;;31.30;15.60;;;9.50;99.90;;;;;;5065802;28;20289;-73
2022/03/30 08:14:38;;;;;;;33.28;15.75;;;9.40;99.90;;;;;;5083075;28;20024;-73
2022/03/30 08:17:05;;;;;;;28.92;15.07;;;9.60;99.90;;;;;;5080597;28;20047;-75
2022/03/30 08:19:31;;;;;;;27.50;15.40;;;9.90;99.90;;;;;;5080521;28;20392;-75
2022/03/30 08:24:46;;;;;;;25.40;14.85;;;10.10;99.90;;;;;;5066140;28;20387;-76
2022/03/30 08:27:17;;;;;;;28.15;14.38;;;10.30;99.90;;;;;;5064189;28;20068;-73
2022/03/30 08:29:44;;;;;;;21.45;13.32;;;10.50;99.90;;;;;;5079840;28;20036;-74
2022/03/30 08:32:11;;;;;;;25.60;14.35;;;10.50;99.90;;;;;;5062358;28;20021;-73
2022/03/30 08:34:37;;;;;;;20.80;13.70;;;10.50;99.90;;;;;;5078771;28;20028;-75
2022/03/30 08:37:04;;;;;;;24.58;13.63;;;10.50;99.90;;;;;;5045612;28;20040;-74
2022/03/30 08:39:30;;;;;;;21.52;13.95;;;10.70;99.90;;;;;;5062758;28;20056;-73
2022/03/30 08:41:56;;;;;;;24.55;13.10;;;10.80;99.90;;;;;;5062914;28;20029;-75
2022/03/30 08:44:22;;;;;;;23.88;13.48;;;11.20;99.90;;;;;;5079846;28;20047;-75
2022/03/30 08:46:48;;;;;;;24.15;12.70;;;11.30;99.90;;;;;;5080160;28;20124;-73
2022/03/30 08:49:16;;;;;;;24.92;13.88;;;11.40;99.90;;;;;;5063012;28;20052;-73
2022/03/30 08:51:47;;;;;;;26.63;13.10;;;11.70;99.90;;;;;;5062715;28;20032;-73
2022/03/30 08:54:17;;;;;;;29.90;14.32;;;11.70;99.90;;;;;;5079342;28;20481;-74
2022/03/30 08:56:43;;;;;;;23.48;13.15;;;11.50;99.90;;;;;;5062412;28;20120;-75
2022/03/30 08:59:18;;;;;;;22.20;12.95;;;11.30;99.90;;;;;;5079200;28;20042;-74
2022/03/30 09:01:45;;;;;;;27.52;13.00;;;11.40;99.90;;;;;;5079891;28;20029;-77
2022/03/30 09:04:13;;;;;;;24.80;13.90;;;11.30;99.90;;;;;;5078707;28;20035;-73
2022/03/30 09:06:44;;;;;;;23.55;13.35;;;11.30;99.90;;;;;;5079176;28;20052;-74
2022/03/30 09:09:11;;;;;;;24.58;13.40;;;11.60;99.90;;;;;;5080407;28;20032;-74
2022/03/30 09:11:44;;;;;;;23.83;13.65;;;11.60;99.90;;;;;;5062145;28;20032;-77
2022/03/30 09:14:12;;;;;;;22.95;13.27;;;11.80;99.90;;;;;;5079204;28;20036;-73
2022/03/30 09:16:37;;;;;;;18.83;12.30;;;12.00;99.90;;;;;;5078928;28;20060;-73
2022/03/30 09:19:08;;;;;;;22.75;12.65;;;12.00;99.90;;;;;;5078845;28;20090;-73
2022/03/30 09:21:46;;;;;;;25.27;12.45;;;12.20;99.90;;;;;;5079183;28;20078;-74
2022/03/30 09:24:15;;;;;;;23.45;13.00;;;12.80;99.90;;;;;;5079275;28;20046;-74
2022/03/30 09:26:42;;;;;;;25.38;12.95;;;12.80;99.90;;;;;;5062031;28;20455;-73
2022/03/30 09:29:09;;;;;;;28.33;13.15;;;12.50;99.90;;;;;;5061931;28;20270;-74
2022/03/30 09:31:36;;;;;;;24.73;12.13;;;12.40;99.90;;;;;;5061825;28;20123;-75
2022/03/30 09:34:06;;;;;;;19.27;12.27;;;12.30;99.90;;;;;;5078424;28;20442;-73
2022/03/30 09:36:35;;;;;;;20.00;12.27;;;12.40;99.90;;;;;;5079108;28;20032;-74
2022/03/30 09:39:01;;;;;;;20.65;12.10;;;12.50;99.90;;;;;;5079138;28;20139;-76
2022/03/30 09:41:48;;;;;;;21.58;11.95;;;12.80;99.90;;;;;;5078441;28;20064;-74
2022/03/30 09:44:14;;;;;;;21.10;11.60;;;12.60;99.90;;;;;;5078077;28;20038;-72
2022/03/30 09:46:55;;;;;;;21.13;12.48;;;12.60;99.90;;;;;;5078953;28;20075;-73
2022/03/30 09:49:45;;;;;;;19.92;11.80;;;12.50;99.90;;;;;;5077964;28;20066;-74
2022/03/30 09:52:18;;;;;;;21.75;12.35;;;12.20;99.90;;;;;;5078843;28;20029;-74
2022/03/30 09:54:49;;;;;;;22.92;12.05;;;12.30;99.90;;;;;;5079120;28;20043;-72
2022/03/30 09:57:24;;;;;;;19.38;11.57;;;12.70;99.90;;;;;;5078791;28;20039;-75
2022/03/30 10:00:03;;;;;;;20.27;12.23;;;12.90;99.90;;;;;;5078941;28;20128;-73
2022/03/30 10:02:36;;;;;;;24.23;11.98;;;13.40;99.90;;;;;;5078379;28;20032;-73
2022/03/30 10:05:04;;;;;;;21.67;12.55;;;13.30;99.90;;;;;;5077828;28;20341;-73
2022/03/30 10:07:29;;;;;;;23.05;13.48;;;13.60;99.90;;;;;;5078186;28;20029;-70
2022/03/30 10:09:57;;;;;;;18.08;11.73;;;14.00;99.90;;;;;;5078646;28;20163;-73
2022/03/30 10:12:24;;;;;;;20.42;12.80;;;14.00;99.90;;;;;;5078619;28;20325;-74
2022/03/30 10:14:50;;;;;;;19.02;11.85;;;14.00;99.90;;;;;;5077971;28;20075;-76
2022/03/30 10:17:18;;;;;;;22.08;12.68;;;14.40;99.90;;;;;;5077876;28;20046;-71
2022/03/30 10:19:46;;;;;;;20.30;12.35;;;14.40;99.90;;;;;;5078932;28;20051;-70
2022/03/30 10:22:43;;;;;;;18.95;12.30;;;14.60;99.90;;;;;;5077257;28;20067;-73
2022/03/30 10:25:30;;;;;;;22.52;12.32;;;14.60;99.90;;;;;;5077854;28;20028;-76
2022/03/30 10:28:14;;;;;;;19.65;12.15;;;14.60;99.90;;;;;;5077704;28;20074;-74
2022/03/30 10:30:43;;;;;;;21.77;12.00;;;14.80;99.90;;;;;;5077151;28;20071;-75
2022/03/30 10:33:11;;;;;;;18.35;12.30;;;15.10;99.90;;;;;;5076964;28;20032;-74
2022/03/30 10:35:37;;;;;;;21.77;12.45;;;15.30;99.90;;;;;;5077183;28;20140;-73
2022/03/30 10:38:03;;;;;;;20.25;11.95;;;15.50;99.90;;;;;;5060237;28;20120;-67
2022/03/30 10:40:29;;;;;;;24.02;12.38;;;15.60;99.90;;;;;;5076211;28;20045;-67
2022/03/30 10:42:59;;;;;;;22.92;12.35;;;16.10;99.90;;;;;;5076294;28;20082;-75
2022/03/30 10:45:46;;;;;;;17.35;11.93;;;16.10;99.90;;;;;;5077680;28;20024;-72
2022/03/30 10:48:18;;;;;;;18.60;12.32;;;16.10;99.90;;;;;;5077502;28;20033;-77
2022/03/30 10:50:51;;;;;;;19.30;12.57;;;16.80;99.90;;;;;;5078947;28;20024;-76
2022/03/30 10:53:35;;;;;;;21.70;13.25;;;17.10;99.90;;;;;;5077016;28;20332;-74
2022/03/30 10:56:07;;;;;;;19.85;12.45;;;17.30;99.90;;;;;;5078292;28;20021;-78
2022/03/30 10:58:33;;;;;;;21.70;12.48;;;18.20;99.90;;;;;;5077740;28;20027;-74
2022/03/30 11:01:14;;;;;;;17.85;11.93;;;19.00;99.90;;;;;;5077382;28;20024;-74
2022/03/30 11:04:00;;;;;;;18.05;12.23;;;19.20;99.90;;;;;;5077555;28;20029;-75
2022/03/30 11:06:31;;;;;;;18.35;12.90;;;18.50;99.90;;;;;;5078386;28;20045;-77
2022/03/30 11:08:59;;;;;;;22.40;13.10;;;19.40;99.90;;;;;;5076761;28;20132;-78
2022/03/30 11:11:30;;;;;;;22.90;13.23;;;19.30;99.90;;;;;;5043605;28;20278;-76
2022/03/30 11:14:22;;;;;;;19.95;12.98;;;18.90;99.90;;;;;;5076874;28;20033;-77
2022/03/30 11:16:54;;;;;;;19.40;12.80;;;19.50;99.90;;;;;;5077329;28;20028;-74
2022/03/30 11:19:26;;;;;;;21.97;13.93;;;19.70;99.70;;;;;;5076942;28;20028;-76
2022/03/30 11:21:54;;;;;;;19.83;12.60;;;20.10;99.30;;;;;;5077014;28;20037;-76
2022/03/30 11:24:24;;;;;;;19.55;13.18;;;20.10;97.60;;;;;;5076312;28;20028;-73
2022/03/30 11:26:50;;;;;;;18.73;12.48;;;19.50;98.60;;;;;;5076367;28;20029;-77
2022/03/30 11:29:41;;;;;;;21.27;13.05;;;18.70;99.00;;;;;;5059951;28;20394;-77
2022/03/30 11:32:19;;;;;;;18.40;12.35;;;19.40;98.70;;;;;;5076545;28;20074;-77
2022/03/30 11:34:52;;;;;;;20.17;12.18;;;20.50;96.50;;;;;;5076266;28;20119;-74
2022/03/30 11:37:19;;;;;;;17.98;12.50;;;20.90;95.20;;;;;;5076562;28;20051;-75
2022/03/30 11:39:49;;;;;;;19.05;12.20;;;20.30;95.30;;;;;;5059094;28;20068;-75
2022/03/30 11:42:21;;;;;;;20.08;12.45;;;20.20;95.20;;;;;;5076203;28;20025;-75
2022/03/30 11:47:36;;;;;;;22.15;12.32;;;19.60;96.20;;;;;;5077077;28;20273;-74
2022/03/30 11:50:03;;;;;;;17.58;12.45;;;20.40;94.80;;;;;;5077229;28;20090;-75
2022/03/30 11:52:29;;;;;;;20.00;11.70;;;20.90;94.00;;;;;;5077249;28;20025;-74
2022/03/30 11:54:55;;;;;;;19.73;12.30;;;20.40;94.00;;;;;;5076116;28;20063;-75
2022/03/30 11:57:22;;;;;;;18.30;12.68;;;20.50;93.30;;;;;;5059768;28;20028;-75
2022/03/30 12:00:00;;;;;;;18.17;12.40;;;20.00;93.50;;;;;;5076269;28;20025;-76
2022/03/30 12:02:27;;;;;;;18.65;12.80;;;18.00;95.80;;;;;;5076469;28;20029;-74
2022/03/30 12:04:54;;;;;;;19.35;12.50;;;17.60;96.80;;;;;;5077108;28;20017;-71
2022/03/30 12:07:21;;;;;;;18.50;12.23;;;17.90;96.50;;;;;;5076176;28;20028;-78
2022/03/30 12:09:53;;;;;;;17.90;12.35;;;18.40;95.70;;;;;;5060934;28;20124;-75
2022/03/30 12:12:40;;;;;;;21.75;12.95;;;18.20;95.80;;;;;;5079589;28;20043;-75
2022/03/30 12:15:16;;;;;;;23.33;12.52;;;18.10;95.50;;;;;;5079820;28;20420;-74
2022/03/30 12:17:48;;;;;;;18.73;12.00;;;18.60;95.40;;;;;;5080477;28;20043;-75
2022/03/30 12:20:31;;;;;;;13.27;10.15;;;18.70;95.00;;;;;;5080571;28;20066;-77
2022/03/30 12:23:01;;;;;;;;;;;19.20;93.70;;;;;;5080774;28;20299;-76
2022/03/30 12:25:33;;;;;;;15.65;10.30;;;19.30;92.60;;;;;;5080468;28;19908;-73
2022/03/30 12:28:00;;;;;;;17.25;11.95;;;19.50;93.00;;;;;;5079621;28;20024;-76
2022/03/30 12:30:29;;;;;;;16.58;11.63;;;19.40;92.80;;;;;;5079569;28;20390;-76
2022/03/30 12:32:55;;;;;;;21.38;11.52;;;19.60;93.20;;;;;;5080247;28;20100;-76
2022/03/30 12:35:21;;;;;;;20.08;12.40;;;20.10;92.90;;;;;;5080785;28;20032;-75
2022/03/30 12:37:49;;;;;;;18.48;12.07;;;21.20;91.60;;;;;;5080383;28;20296;-76
2022/03/30 12:40:21;;;;;;;15.88;10.93;;;22.20;90.20;;;;;;5080273;28;20133;-77
2022/03/30 12:42:48;;;;;;;21.42;11.50;;;23.20;87.10;;;;;;5079339;28;20419;-70
2022/03/30 12:45:17;;;;;;;17.83;12.30;;;24.20;82.60;;;;;;5080220;28;20123;-73
2022/03/30 12:47:54;;;;;;;19.25;11.90;;;23.90;80.00;;;;;;5079336;28;20024;-77
2022/03/30 12:50:33;;;;;;;15.45;10.27;;;25.00;77.70;;;;;;5079253;28;20044;-73
2022/03/30 12:53:15;;;;;;;15.25;11.45;;;24.70;76.00;;;;;;5079936;28;20025;-75